sensor_id;sensor_type;location;lat;lon;timestamp;temperature;humidity
22984;DHT22;11658;48.908;9.140;2023-04-24T03:02:50;10.90;99.90
22984;DHT22;11658;48.908;9.140;2023-04-24T03:05:16;10.80;99.90
22984;DHT22;11658;48.908;9.140;2023-04-24T03:07:41;11.00;99.90
22984;DHT22;11658;48.908;9.140;2023-04-24T03:10:07;10.80;99.90
22984;DHT22;11658;48.908;9.140;2023-04-24T03:12:33;10.80;99.90
22984;DHT22;11658;48.908;9.140;2023-04-24T03:14:58;10.80;99.90
22984;DHT22;11658;48.908;9.140;2023-04-24T03:17:24;10.80;99.90
22984;DHT22;11658;48.908;9.140;2023-04-24T03:19:50;10.70;99.90
22984;DHT22;11658;48.908;9.140;2023-04-24T03:22:15;10.70;99.90
22984;DHT22;11658;48.908;9.140;2023-04-24T03:24:41;10.70;99.90
22984;DHT22;11658;48.908;9.140;2023-04-24T03:27:07;10.70;99.90
22984;DHT22;11658;48.908;9.140;2023-04-24T03:29:32;10.70;99.90
22984;DHT22;11658;48.908;9.140;2023-04-24T03:31:58;10.60;99.90
22984;DHT22;11658;48.908;9.140;2023-04-24T03:34:23;10.60;99.90
22984;DHT22;11658;48.908;9.140;2023-04-24T03:36:49;10.60;99.90
22984;DHT22;11658;48.908;9.140;2023-04-24T03:39:15;10.50;99.90
22984;DHT22;11658;48.908;9.140;2023-04-24T03:41:41;10.50;99.90
22984;DHT22;11658;48.908;9.140;2023-04-24T03:44:06;10.50;99.90
22984;DHT22;11658;48.908;9.140;2023-04-24T03:46:32;10.50;99.90
22984;DHT22;11658;48.908;9.140;2023-04-24T03:48:57;10.50;99.90
22984;DHT22;11658;48.908;9.140;2023-04-24T03:51:23;10.50;99.90
22984;DHT22;11658;48.908;9.140;2023-04-24T03:53:49;10.40;99.90
22984;DHT22;11658;48.908;9.140;2023-04-24T03:56:15;10.50;99.90
22984;DHT22;11658;48.908;9.140;2023-04-24T03:58:40;10.50;99.90
22984;DHT22;11658;48.908;9.140;2023-04-24T04:01:06;10.60;99.90
22984;DHT22;11658;48.908;9.140;2023-04-24T04:03:31;10.60;99.90
22984;DHT22;11658;48.908;9.140;2023-04-24T04:05:57;10.50;99.90
22984;DHT22;11658;48.908;9.140;2023-04-24T04:08:23;10.60;99.90
22984;DHT22;11658;48.908;9.140;2023-04-24T04:10:48;10.60;99.90
22984;DHT22;11658;48.908;9.140;2023-04-24T04:13:14;10.70;99.90
22984;DHT22;11658;48.908;9.140;2023-04-24T04:15:40;10.60;99.90
22984;DHT22;11658;48.908;9.140;2023-04-24T04:18:06;10.40;99.90
22984;DHT22;11658;48.908;9.140;2023-04-24T04:20:31;10.20;99.90
22984;DHT22;11658;48.908;9.140;2023-04-24T04:22:57;10.10;99.90
22984;DHT22;11658;48.908;9.140;2023-04-24T04:25:22;10.00;99.90
22984;DHT22;11658;48.908;9.140;2023-04-24T04:27:48;9.80;99.90
22984;DHT22;11658;48.908;9.140;2023-04-24T04:30:14;9.80;99.90
22984;DHT22;11658;48.908;9.140;2023-04-24T04:32:40;9.60;99.90
22984;DHT22;11658;48.908;9.140;2023-04-24T04:35:06;9.60;99.90
22984;DHT22;11658;48.908;9.140;2023-04-24T04:37:34;9.60;99.90
22984;DHT22;11658;48.908;9.140;2023-04-24T04:40:01;9.60;99.90
22984;DHT22;11658;48.908;9.140;2023-04-24T04:42:26;9.50;99.90
22984;DHT22;11658;48.908;9.140;2023-04-24T04:44:53;9.50;99.90
22984;DHT22;11658;48.908;9.140;2023-04-24T04:47:21;9.50;99.90
22984;DHT22;11658;48.908;9.140;2023-04-24T04:49:48;9.40;99.90
22984;DHT22;11658;48.908;9.140;2023-04-24T04:52:14;9.50;99.90
22984;DHT22;11658;48.908;9.140;2023-04-24T04:54:40;9.50;99.90
22984;DHT22;11658;48.908;9.140;2023-04-24T04:57:06;9.40;99.90
22984;DHT22;11658;48.908;9.140;2023-04-24T04:59:31;9.50;99.90
22984;DHT22;11658;48.908;9.140;2023-04-24T05:01:57;9.60;99.90
22984;DHT22;11658;48.908;9.140;2023-04-24T05:04:22;9.60;99.90
22984;DHT22;11658;48.908;9.140;2023-04-24T05:06:48;9.60;99.90
22984;DHT22;11658;48.908;9.140;2023-04-24T05:09:13;9.50;99.90
22984;DHT22;11658;48.908;9.140;2023-04-24T05:11:39;9.50;99.90
22984;DHT22;11658;48.908;9.140;2023-04-24T05:14:05;9.50;99.90
22984;DHT22;11658;48.908;9.140;2023-04-24T05:16:30;9.40;99.90
22984;DHT22;11658;48.908;9.140;2023-04-24T05:18:56;9.40;99.90
22984;DHT22;11658;48.908;9.140;2023-04-24T05:21:22;9.40;99.90
22984;DHT22;11658;48.908;9.140;2023-04-24T05:23:47;9.40;99.90
22984;DHT22;11658;48.908;9.140;2023-04-24T05:26:13;9.50;99.90
22984;DHT22;11658;48.908;9.140;2023-04-24T05:28:39;9.50;99.90
22984;DHT22;11658;48.908;9.140;2023-04-24T05:31:05;9.50;99.90
22984;DHT22;11658;48.908;9.140;2023-04-24T05:33:31;9.50;99.90
22984;DHT22;11658;48.908;9.140;2023-04-24T05:35:57;9.50;99.90
22984;DHT22;11658;48.908;9.140;2023-04-24T05:38:23;9.50;99.90
22984;DHT22;11658;48.908;9.140;2023-04-24T05:40:48;9.60;99.90
22984;DHT22;11658;48.908;9.140;2023-04-24T05:43:14;9.60;99.90
22984;DHT22;11658;48.908;9.140;2023-04-24T05:45:40;9.40;99.90
22984;DHT22;11658;48.908;9.140;2023-04-24T05:48:05;9.40;99.90
22984;DHT22;11658;48.908;9.140;2023-04-24T05:50:31;9.40;99.90
22984;DHT22;11658;48.908;9.140;2023-04-24T05:52:57;9.40;99.90
22984;DHT22;11658;48.908;9.140;2023-04-24T05:55:24;9.60;99.90
22984;DHT22;11658;48.908;9.140;2023-04-24T05:57:50;10.00;99.90
22984;DHT22;11658;48.908;9.140;2023-04-24T06:00:16;10.70;99.90
22984;DHT22;11658;48.908;9.140;2023-04-24T06:02:43;10.70;99.90
22984;DHT22;11658;48.908;9.140;2023-04-24T06:05:08;10.40;99.90
22984;DHT22;11658;48.908;9.140;2023-04-24T06:07:34;10.30;99.90
22984;DHT22;11658;48.908;9.140;2023-04-24T06:10:00;10.20;99.90
22984;DHT22;11658;48.908;9.140;2023-04-24T06:12:26;10.30;99.90
22984;DHT22;11658;48.908;9.140;2023-04-24T06:14:52;10.20;99.90
22984;DHT22;11658;48.908;9.140;2023-04-24T06:17:18;10.20;99.90
22984;DHT22;11658;48.908;9.140;2023-04-24T06:19:44;10.30;99.90
22984;DHT22;11658;48.908;9.140;2023-04-24T06:22:09;10.50;99.90
22984;DHT22;11658;48.908;9.140;2023-04-24T06:24:35;10.70;99.90
22984;DHT22;11658;48.908;9.140;2023-04-24T06:27:01;11.00;99.90
22984;DHT22;11658;48.908;9.140;2023-04-24T06:29:27;11.20;99.90
22984;DHT22;11658;48.908;9.140;2023-04-24T06:31:53;11.10;99.90
22984;DHT22;11658;48.908;9.140;2023-04-24T06:34:18;10.90;99.90
22984;DHT22;11658;48.908;9.140;2023-04-24T06:36:44;11.00;99.90
22984;DHT22;11658;48.908;9.140;2023-04-24T06:39:10;11.20;99.90
22984;DHT22;11658;48.908;9.140;2023-04-24T06:41:35;11.40;99.90
22984;DHT22;11658;48.908;9.140;2023-04-24T06:44:01;11.20;99.90
22984;DHT22;11658;48.908;9.140;2023-04-24T06:46:26;11.00;99.90
22984;DHT22;11658;48.908;9.140;2023-04-24T06:48:53;11.00;99.90
22984;DHT22;11658;48.908;9.140;2023-04-24T06:51:25;11.20;99.90
22984;DHT22;11658;48.908;9.140;2023-04-24T06:53:54;11.30;99.90
22984;DHT22;11658;48.908;9.140;2023-04-24T06:56:21;11.40;99.90
22984;DHT22;11658;48.908;9.140;2023-04-24T06:58:47;11.60;99.90
22984;DHT22;11658;48.908;9.140;2023-04-24T07:01:13;11.70;99.90
22984;DHT22;11658;48.908;9.140;2023-04-24T07:03:39;11.90;99.90
22984;DHT22;11658;48.908;9.140;2023-04-24T07:06:05;11.90;99.90
22984;DHT22;11658;48.908;9.140;2023-04-24T07:08:31;11.90;99.90
22984;DHT22;11658;48.908;9.140;2023-04-24T07:10:57;12.20;99.90
22984;DHT22;11658;48.908;9.140;2023-04-24T07:13:23;12.40;99.90
22984;DHT22;11658;48.908;9.140;2023-04-24T07:15:49;12.40;99.90
22984;DHT22;11658;48.908;9.140;2023-04-24T07:18:20;11.90;99.90
22984;DHT22;11658;48.908;9.140;2023-04-24T07:20:45;11.60;99.90
22984;DHT22;11658;48.908;9.140;2023-04-24T07:23:11;11.50;99.90
22984;DHT22;11658;48.908;9.140;2023-04-24T07:25:36;11.60;99.90
22984;DHT22;11658;48.908;9.140;2023-04-24T07:28:04;11.70;99.90
22984;DHT22;11658;48.908;9.140;2023-04-24T07:30:30;12.10;99.90
22984;DHT22;11658;48.908;9.140;2023-04-24T07:32:58;12.20;99.90
22984;DHT22;11658;48.908;9.140;2023-04-24T07:35:24;12.10;99.90
22984;DHT22;11658;48.908;9.140;2023-04-24T07:37:51;11.80;99.90
22984;DHT22;11658;48.908;9.140;2023-04-24T07:40:18;11.50;99.90
22984;DHT22;11658;48.908;9.140;2023-04-24T07:42:43;11.40;99.90
22984;DHT22;11658;48.908;9.140;2023-04-24T07:45:09;11.30;99.90
22984;DHT22;11658;48.908;9.140;2023-04-24T07:47:35;11.30;99.90
22984;DHT22;11658;48.908;9.140;2023-04-24T07:50:03;11.50;99.90
22984;DHT22;11658;48.908;9.140;2023-04-24T07:52:28;11.40;99.90
22984;DHT22;11658;48.908;9.140;2023-04-24T07:54:55;11.30;99.90
22984;DHT22;11658;48.908;9.140;2023-04-24T07:57:26;11.30;99.90
22984;DHT22;11658;48.908;9.140;2023-04-24T07:59:52;11.40;99.90
22984;DHT22;11658;48.908;9.140;2023-04-24T08:02:17;11.50;99.90
22984;DHT22;11658;48.908;9.140;2023-04-24T08:04:43;11.60;99.90
22984;DHT22;11658;48.908;9.140;2023-04-24T08:07:08;11.40;99.90
22984;DHT22;11658;48.908;9.140;2023-04-24T08:09:34;11.40;99.90
22984;DHT22;11658;48.908;9.140;2023-04-24T08:12:00;11.50;99.90
22984;DHT22;11658;48.908;9.140;2023-04-24T08:14:26;11.50;99.90
22984;DHT22;11658;48.908;9.140;2023-04-24T08:16:54;11.30;99.90
22984;DHT22;11658;48.908;9.140;2023-04-24T08:19:21;11.40;99.90
22984;DHT22;11658;48.908;9.140;2023-04-24T08:21:47;11.20;99.90
22984;DHT22;11658;48.908;9.140;2023-04-24T08:24:12;11.10;99.90
22984;DHT22;11658;48.908;9.140;2023-04-24T08:26:38;11.20;99.90
22984;DHT22;11658;48.908;9.140;2023-04-24T08:29:04;11.50;99.90
22984;DHT22;11658;48.908;9.140;2023-04-24T08:31:29;11.60;99.90
22984;DHT22;11658;48.908;9.140;2023-04-24T08:33:55;11.50;99.90
22984;DHT22;11658;48.908;9.140;2023-04-24T08:36:21;11.40;99.90
22984;DHT22;11658;48.908;9.140;2023-04-24T08:38:46;11.20;99.90
22984;DHT22;11658;48.908;9.140;2023-04-24T08:41:14;11.20;99.90
22984;DHT22;11658;48.908;9.140;2023-04-24T08:43:40;11.30;99.90
22984;DHT22;11658;48.908;9.140;2023-04-24T08:46:06;11.50;99.90
22984;DHT22;11658;48.908;9.140;2023-04-24T08:48:32;11.80;99.90
22984;DHT22;11658;48.908;9.140;2023-04-24T08:50:59;11.90;99.90
22984;DHT22;11658;48.908;9.140;2023-04-24T08:53:25;12.00;99.90
22984;DHT22;11658;48.908;9.140;2023-04-24T08:55:51;11.90;99.90
22984;DHT22;11658;48.908;9.140;2023-04-24T08:58:19;12.20;99.90
22984;DHT22;11658;48.908;9.140;2023-04-24T09:00:45;12.20;99.90
22984;DHT22;11658;48.908;9.140;2023-04-24T09:03:16;12.00;99.90
22984;DHT22;11658;48.908;9.140;2023-04-24T09:05:46;12.00;99.90
22984;DHT22;11658;48.908;9.140;2023-04-24T09:08:17;12.20;99.90
22984;DHT22;11658;48.908;9.140;2023-04-24T09:10:43;12.40;99.90
22984;DHT22;11658;48.908;9.140;2023-04-24T09:13:09;12.70;99.90
22984;DHT22;11658;48.908;9.140;2023-04-24T09:15:36;12.50;99.90
22984;DHT22;11658;48.908;9.140;2023-04-24T09:18:02;11.90;99.90
22984;DHT22;11658;48.908;9.140;2023-04-24T09:20:28;11.70;99.90
22984;DHT22;11658;48.908;9.140;2023-04-24T09:22:54;11.40;99.90
22984;DHT22;11658;48.908;9.140;2023-04-24T09:25:21;11.40;99.90
22984;DHT22;11658;48.908;9.140;2023-04-24T09:27:47;11.40;99.90
22984;DHT22;11658;48.908;9.140;2023-04-24T09:30:13;11.50;99.90
22984;DHT22;11658;48.908;9.140;2023-04-24T09:32:39;11.90;99.90
22984;DHT22;11658;48.908;9.140;2023-04-24T09:37:38;12.60;99.90
22984;DHT22;11658;48.908;9.140;2023-04-24T09:42:37;12.70;99.90
22984;DHT22;11658;48.908;9.140;2023-04-24T09:45:04;12.70;99.90
22984;DHT22;11658;48.908;9.140;2023-04-24T09:47:36;12.40;99.90
22984;DHT22;11658;48.908;9.140;2023-04-24T09:50:10;12.60;99.90
22984;DHT22;11658;48.908;9.140;2023-04-24T09:52:36;12.60;99.90
22984;DHT22;11658;48.908;9.140;2023-04-24T09:55:11;12.40;99.90
22984;DHT22;11658;48.908;9.140;2023-04-24T09:57:50;12.40;99.90
22984;DHT22;11658;48.908;9.140;2023-04-24T10:03:02;12.60;99.90
22984;DHT22;11658;48.908;9.140;2023-04-24T10:05:35;12.80;99.90
22984;DHT22;11658;48.908;9.140;2023-04-24T10:08:07;12.60;99.90
22984;DHT22;11658;48.908;9.140;2023-04-24T10:10:34;12.10;99.90
22984;DHT22;11658;48.908;9.140;2023-04-24T10:13:02;11.90;99.90
22984;DHT22;11658;48.908;9.140;2023-04-24T10:15:28;12.10;99.90
22984;DHT22;11658;48.908;9.140;2023-04-24T10:17:54;12.00;99.90
22984;DHT22;11658;48.908;9.140;2023-04-24T10:20:23;11.90;99.90
22984;DHT22;11658;48.908;9.140;2023-04-24T10:22:50;12.00;99.90
22984;DHT22;11658;48.908;9.140;2023-04-24T10:25:25;12.00;99.90
22984;DHT22;11658;48.908;9.140;2023-04-24T10:27:52;12.10;99.90
22984;DHT22;11658;48.908;9.140;2023-04-24T10:30:19;12.30;99.90
22984;DHT22;11658;48.908;9.140;2023-04-24T10:32:47;12.30;99.90
22984;DHT22;11658;48.908;9.140;2023-04-24T10:35:14;12.20;99.90
22984;DHT22;11658;48.908;9.140;2023-04-24T10:37:46;12.00;99.90
22984;DHT22;11658;48.908;9.140;2023-04-24T10:40:25;11.70;99.90
22984;DHT22;11658;48.908;9.140;2023-04-24T10:42:52;11.60;99.90
22984;DHT22;11658;48.908;9.140;2023-04-24T10:45:22;11.60;99.90
22984;DHT22;11658;48.908;9.140;2023-04-24T10:50:17;12.10;99.90
22984;DHT22;11658;48.908;9.140;2023-04-24T10:52:49;12.20;99.90
22984;DHT22;11658;48.908;9.140;2023-04-24T10:55:17;11.90;99.90
22984;DHT22;11658;48.908;9.140;2023-04-24T10:58:05;11.80;99.90
22984;DHT22;11658;48.908;9.140;2023-04-24T11:00:31;12.10;99.90
22984;DHT22;11658;48.908;9.140;2023-04-24T11:02:56;12.30;99.90
22984;DHT22;11658;48.908;9.140;2023-04-24T11:06:04;12.20;99.90
22984;DHT22;11658;48.908;9.140;2023-04-24T11:08:40;12.70;99.90
22984;DHT22;11658;48.908;9.140;2023-04-24T11:11:15;12.90;99.90
22984;DHT22;11658;48.908;9.140;2023-04-24T11:16:30;12.80;99.90
22984;DHT22;11658;48.908;9.140;2023-04-24T11:26:51;12.90;99.90
22984;DHT22;11658;48.908;9.140;2023-04-24T11:29:19;13.10;99.90
22984;DHT22;11658;48.908;9.140;2023-04-24T11:31:45;13.20;99.90
22984;DHT22;11658;48.908;9.140;2023-04-24T11:34:17;13.20;99.90
22984;DHT22;11658;48.908;9.140;2023-04-24T11:36:46;12.90;99.90
22984;DHT22;11658;48.908;9.140;2023-04-24T11:39:14;12.80;99.90
22984;DHT22;11658;48.908;9.140;2023-04-24T11:41:40;13.10;99.90
22984;DHT22;11658;48.908;9.140;2023-04-24T11:44:07;13.10;99.90
22984;DHT22;11658;48.908;9.140;2023-04-24T11:46:33;12.70;99.90
22984;DHT22;11658;48.908;9.140;2023-04-24T11:48:59;12.50;99.90
22984;DHT22;11658;48.908;9.140;2023-04-24T11:51:26;12.30;99.90
22984;DHT22;11658;48.908;9.140;2023-04-24T11:53:56;12.40;99.90
22984;DHT22;11658;48.908;9.140;2023-04-24T11:56:23;12.60;99.90
22984;DHT22;11658;48.908;9.140;2023-04-24T11:58:48;12.60;99.90
22984;DHT22;11658;48.908;9.140;2023-04-24T12:01:14;12.60;99.90
22984;DHT22;11658;48.908;9.140;2023-04-24T12:03:40;12.50;99.90
22984;DHT22;11658;48.908;9.140;2023-04-24T12:06:10;12.40;99.90
22984;DHT22;11658;48.908;9.140;2023-04-24T12:08:37;12.40;99.90
22984;DHT22;11658;48.908;9.140;2023-04-24T12:11:05;12.40;99.90
22984;DHT22;11658;48.908;9.140;2023-04-24T12:13:33;12.50;99.90
22984;DHT22;11658;48.908;9.140;2023-04-24T12:15:58;12.70;99.90
22984;DHT22;11658;48.908;9.140;2023-04-24T12:18:24;12.80;99.90
22984;DHT22;11658;48.908;9.140;2023-04-24T12:20:50;12.90;99.90
22984;DHT22;11658;48.908;9.140;2023-04-24T12:23:27;12.80;99.90
22984;DHT22;11658;48.908;9.140;2023-04-24T12:26:00;12.80;99.90
22984;DHT22;11658;48.908;9.140;2023-04-24T12:28:35;12.70;99.90
22984;DHT22;11658;48.908;9.140;2023-04-24T12:31:01;12.40;99.90
22984;DHT22;11658;48.908;9.140;2023-04-24T12:33:27;12.20;99.90
22984;DHT22;11658;48.908;9.140;2023-04-24T12:35:53;12.10;99.90
22984;DHT22;11658;48.908;9.140;2023-04-24T12:38:22;12.00;99.90
22984;DHT22;11658;48.908;9.140;2023-04-24T12:41:04;12.10;99.90
22984;DHT22;11658;48.908;9.140;2023-04-24T12:43:30;12.30;99.90
22984;DHT22;11658;48.908;9.140;2023-04-24T12:45:56;12.40;99.90
22984;DHT22;11658;48.908;9.140;2023-04-24T12:48:22;12.40;99.90
22984;DHT22;11658;48.908;9.140;2023-04-24T12:50:48;12.40;99.90
22984;DHT22;11658;48.908;9.140;2023-04-24T12:53:14;12.30;99.90
22984;DHT22;11658;48.908;9.140;2023-04-24T12:55:41;12.40;99.90
22984;DHT22;11658;48.908;9.140;2023-04-24T12:58:06;12.60;99.90
22984;DHT22;11658;48.908;9.140;2023-04-24T13:00:32;12.60;99.90
22984;DHT22;11658;48.908;9.140;2023-04-24T13:02:58;12.60;99.90
22984;DHT22;11658;48.908;9.140;2023-04-24T13:05:23;12.80;99.90
22984;DHT22;11658;48.908;9.140;2023-04-24T13:07:49;13.10;99.90
22984;DHT22;11658;48.908;9.140;2023-04-24T13:10:15;13.00;99.90
22984;DHT22;11658;48.908;9.140;2023-04-24T13:12:40;13.30;99.90
22984;DHT22;11658;48.908;9.140;2023-04-24T13:15:06;12.90;99.90
22984;DHT22;11658;48.908;9.140;2023-04-24T13:17:32;12.90;99.90
22984;DHT22;11658;48.908;9.140;2023-04-24T13:19:58;12.80;99.90
22984;DHT22;11658;48.908;9.140;2023-04-24T13:22:24;13.00;99.90
22984;DHT22;11658;48.908;9.140;2023-04-24T13:24:50;13.10;99.90
22984;DHT22;11658;48.908;9.140;2023-04-24T13:27:16;13.30;99.90
22984;DHT22;11658;48.908;9.140;2023-04-24T13:29:42;13.30;99.90
22984;DHT22;11658;48.908;9.140;2023-04-24T13:32:08;13.40;99.90
22984;DHT22;11658;48.908;9.140;2023-04-24T13:34:34;13.70;99.90
22984;DHT22;11658;48.908;9.140;2023-04-24T13:37:00;13.10;99.90
22984;DHT22;11658;48.908;9.140;2023-04-24T13:39:26;12.80;99.90
22984;DHT22;11658;48.908;9.140;2023-04-24T13:41:52;12.80;99.90
22984;DHT22;11658;48.908;9.140;2023-04-24T13:44:19;12.80;99.90
22984;DHT22;11658;48.908;9.140;2023-04-24T13:46:47;12.60;99.90
22984;DHT22;11658;48.908;9.140;2023-04-24T13:49:14;13.00;99.90
22984;DHT22;11658;48.908;9.140;2023-04-24T13:51:40;13.30;99.90
22984;DHT22;11658;48.908;9.140;2023-04-24T13:54:06;13.40;99.90
22984;DHT22;11658;48.908;9.140;2023-04-24T13:56:32;13.20;99.90
22984;DHT22;11658;48.908;9.140;2023-04-24T13:58:57;13.30;99.90
22984;DHT22;11658;48.908;9.140;2023-04-24T14:01:24;13.30;99.90
22984;DHT22;11658;48.908;9.140;2023-04-24T14:03:53;13.00;99.90
22984;DHT22;11658;48.908;9.140;2023-04-24T14:06:19;12.90;99.90
22984;DHT22;11658;48.908;9.140;2023-04-24T14:08:46;13.00;99.90
22984;DHT22;11658;48.908;9.140;2023-04-24T14:11:13;13.00;99.90
22984;DHT22;11658;48.908;9.140;2023-04-24T14:13:43;12.80;99.90
22984;DHT22;11658;48.908;9.140;2023-04-24T14:16:09;12.80;99.90
22984;DHT22;11658;48.908;9.140;2023-04-24T14:18:35;12.80;99.90
22984;DHT22;11658;48.908;9.140;2023-04-24T14:21:02;12.70;99.90
22984;DHT22;11658;48.908;9.140;2023-04-24T14:23:28;12.60;99.90
22984;DHT22;11658;48.908;9.140;2023-04-24T14:25:54;12.60;99.90
22984;DHT22;11658;48.908;9.140;2023-04-24T14:28:23;12.80;99.90
22984;DHT22;11658;48.908;9.140;2023-04-24T14:30:50;13.10;99.90
22984;DHT22;11658;48.908;9.140;2023-04-24T14:33:16;13.10;99.90
22984;DHT22;11658;48.908;9.140;2023-04-24T14:35:42;13.10;99.90
22984;DHT22;11658;48.908;9.140;2023-04-24T14:38:08;12.90;99.90
22984;DHT22;11658;48.908;9.140;2023-04-24T14:40:34;12.90;99.90
22984;DHT22;11658;48.908;9.140;2023-04-24T14:43:00;12.90;99.90
22984;DHT22;11658;48.908;9.140;2023-04-24T14:45:26;12.80;99.90
22984;DHT22;11658;48.908;9.140;2023-04-24T14:47:52;13.00;99.90
22984;DHT22;11658;48.908;9.140;2023-04-24T14:50:18;13.20;99.90
22984;DHT22;11658;48.908;9.140;2023-04-24T14:52:44;13.10;99.90
22984;DHT22;11658;48.908;9.140;2023-04-24T14:55:10;13.00;99.90
22984;DHT22;11658;48.908;9.140;2023-04-24T14:57:35;13.50;99.90
22984;DHT22;11658;48.908;9.140;2023-04-24T15:00:03;13.70;99.90
22984;DHT22;11658;48.908;9.140;2023-04-24T15:02:32;13.70;99.90
22984;DHT22;11658;48.908;9.140;2023-04-24T15:04:57;13.80;99.90
22984;DHT22;11658;48.908;9.140;2023-04-24T15:07:24;13.90;99.90
22984;DHT22;11658;48.908;9.140;2023-04-24T15:09:49;14.00;99.90
22984;DHT22;11658;48.908;9.140;2023-04-24T15:12:15;13.70;99.90
22984;DHT22;11658;48.908;9.140;2023-04-24T15:14:40;13.40;99.90
22984;DHT22;11658;48.908;9.140;2023-04-24T15:17:06;13.20;99.90
22984;DHT22;11658;48.908;9.140;2023-04-24T15:19:32;13.00;99.90
22984;DHT22;11658;48.908;9.140;2023-04-24T15:21:57;12.60;99.90
22984;DHT22;11658;48.908;9.140;2023-04-24T15:24:23;12.50;99.90
22984;DHT22;11658;48.908;9.140;2023-04-24T15:26:48;12.40;99.90
22984;DHT22;11658;48.908;9.140;2023-04-24T15:29:14;12.40;99.90
22984;DHT22;11658;48.908;9.140;2023-04-24T15:31:40;12.40;99.90
22984;DHT22;11658;48.908;9.140;2023-04-24T15:34:06;12.60;99.90
22984;DHT22;11658;48.908;9.140;2023-04-24T15:36:31;12.70;99.90
22984;DHT22;11658;48.908;9.140;2023-04-24T15:38:57;12.80;99.90
22984;DHT22;11658;48.908;9.140;2023-04-24T15:41:23;13.10;99.90
22984;DHT22;11658;48.908;9.140;2023-04-24T15:43:49;13.20;99.90
22984;DHT22;11658;48.908;9.140;2023-04-24T15:46:14;13.00;99.90
22984;DHT22;11658;48.908;9.140;2023-04-24T15:48:41;13.10;99.90
22984;DHT22;11658;48.908;9.140;2023-04-24T15:51:07;13.10;99.90
22984;DHT22;11658;48.908;9.140;2023-04-24T15:53:33;12.80;99.90
22984;DHT22;11658;48.908;9.140;2023-04-24T15:55:58;12.60;99.90
22984;DHT22;11658;48.908;9.140;2023-04-24T15:58:24;12.60;99.90
22984;DHT22;11658;48.908;9.140;2023-04-24T16:00:50;12.40;99.90
22984;DHT22;11658;48.908;9.140;2023-04-24T16:03:15;12.50;99.90
22984;DHT22;11658;48.908;9.140;2023-04-24T16:05:41;12.70;99.90
22984;DHT22;11658;48.908;9.140;2023-04-24T16:08:07;12.60;99.90
22984;DHT22;11658;48.908;9.140;2023-04-24T16:10:32;12.70;99.90
22984;DHT22;11658;48.908;9.140;2023-04-24T16:12:58;12.80;99.90
22984;DHT22;11658;48.908;9.140;2023-04-24T16:15:26;12.80;99.90
22984;DHT22;11658;48.908;9.140;2023-04-24T16:17:52;13.30;99.90
22984;DHT22;11658;48.908;9.140;2023-04-24T16:20:18;13.70;99.90
22984;DHT22;11658;48.908;9.140;2023-04-24T16:22:43;14.10;99.90
22984;DHT22;11658;48.908;9.140;2023-04-24T16:25:10;14.90;99.90
22984;DHT22;11658;48.908;9.140;2023-04-24T16:27:36;15.30;99.90
22984;DHT22;11658;48.908;9.140;2023-04-24T16:30:02;15.30;99.90
22984;DHT22;11658;48.908;9.140;2023-04-24T16:32:28;14.80;99.90
22984;DHT22;11658;48.908;9.140;2023-04-24T16:34:54;14.00;99.90
22984;DHT22;11658;48.908;9.140;2023-04-24T16:37:19;13.20;99.90
22984;DHT22;11658;48.908;9.140;2023-04-24T16:39:45;12.90;99.90
22984;DHT22;11658;48.908;9.140;2023-04-24T16:42:12;12.90;99.90
22984;DHT22;11658;48.908;9.140;2023-04-24T16:44:38;12.80;99.90
22984;DHT22;11658;48.908;9.140;2023-04-24T16:47:08;12.60;99.90
22984;DHT22;11658;48.908;9.140;2023-04-24T16:49:34;12.50;99.90
22984;DHT22;11658;48.908;9.140;2023-04-24T16:52:00;12.50;99.90
22984;DHT22;11658;48.908;9.140;2023-04-24T16:54:25;12.50;99.90
22984;DHT22;11658;48.908;9.140;2023-04-24T16:56:52;12.60;99.90
22984;DHT22;11658;48.908;9.140;2023-04-24T16:59:18;12.50;99.90
22984;DHT22;11658;48.908;9.140;2023-04-24T17:01:43;12.40;99.90
22984;DHT22;11658;48.908;9.140;2023-04-24T17:04:09;12.40;99.90
22984;DHT22;11658;48.908;9.140;2023-04-24T17:06:34;12.40;99.90
22984;DHT22;11658;48.908;9.140;2023-04-24T17:09:00;12.50;99.90
22984;DHT22;11658;48.908;9.140;2023-04-24T17:11:26;12.50;99.90
22984;DHT22;11658;48.908;9.140;2023-04-24T17:13:52;12.60;99.90
22984;DHT22;11658;48.908;9.140;2023-04-24T17:16:17;12.60;99.90
22984;DHT22;11658;48.908;9.140;2023-04-24T17:18:43;12.60;99.90
22984;DHT22;11658;48.908;9.140;2023-04-24T17:21:08;12.50;99.90
22984;DHT22;11658;48.908;9.140;2023-04-24T17:23:34;12.60;99.90
22984;DHT22;11658;48.908;9.140;2023-04-24T17:26:00;13.20;99.90
22984;DHT22;11658;48.908;9.140;2023-04-24T17:28:30;13.60;99.90
22984;DHT22;11658;48.908;9.140;2023-04-24T17:30:56;13.70;99.90
22984;DHT22;11658;48.908;9.140;2023-04-24T17:33:26;13.60;99.90
22984;DHT22;11658;48.908;9.140;2023-04-24T17:35:52;13.20;99.90
22984;DHT22;11658;48.908;9.140;2023-04-24T17:38:18;13.00;99.90
22984;DHT22;11658;48.908;9.140;2023-04-24T17:40:44;12.80;99.90
22984;DHT22;11658;48.908;9.140;2023-04-24T17:43:12;12.80;99.90
22984;DHT22;11658;48.908;9.140;2023-04-24T17:45:43;12.50;99.90
22984;DHT22;11658;48.908;9.140;2023-04-24T17:48:10;12.30;99.90
22984;DHT22;11658;48.908;9.140;2023-04-24T17:50:36;12.20;99.90
22984;DHT22;11658;48.908;9.140;2023-04-24T17:53:02;12.00;99.90
22984;DHT22;11658;48.908;9.140;2023-04-24T17:55:27;11.90;99.90
22984;DHT22;11658;48.908;9.140;2023-04-24T17:57:53;11.90;99.90
22984;DHT22;11658;48.908;9.140;2023-04-24T18:00:19;11.90;99.90
22984;DHT22;11658;48.908;9.140;2023-04-24T18:02:44;11.90;99.90
22984;DHT22;11658;48.908;9.140;2023-04-24T18:05:10;11.80;99.90
22984;DHT22;11658;48.908;9.140;2023-04-24T18:07:36;11.80;99.90
22984;DHT22;11658;48.908;9.140;2023-04-24T18:10:02;11.80;99.90
22984;DHT22;11658;48.908;9.140;2023-04-24T18:12:28;11.70;99.90
22984;DHT22;11658;48.908;9.140;2023-04-24T18:14:53;11.70;99.90
22984;DHT22;11658;48.908;9.140;2023-04-24T18:17:19;11.60;99.90
22984;DHT22;11658;48.908;9.140;2023-04-24T18:19:45;11.60;99.90
22984;DHT22;11658;48.908;9.140;2023-04-24T18:22:11;11.50;99.90
22984;DHT22;11658;48.908;9.140;2023-04-24T18:24:36;11.50;99.90
22984;DHT22;11658;48.908;9.140;2023-04-24T18:27:02;11.50;99.90
22984;DHT22;11658;48.908;9.140;2023-04-24T18:29:28;11.40;99.90
22984;DHT22;11658;48.908;9.140;2023-04-24T18:31:53;11.40;99.90
22984;DHT22;11658;48.908;9.140;2023-04-24T18:34:19;11.40;99.90
22984;DHT22;11658;48.908;9.140;2023-04-24T18:36:45;11.40;99.90
22984;DHT22;11658;48.908;9.140;2023-04-24T18:39:10;11.40;99.90
22984;DHT22;11658;48.908;9.140;2023-04-24T18:41:38;11.40;99.90
22984;DHT22;11658;48.908;9.140;2023-04-24T18:44:03;11.40;99.90
22984;DHT22;11658;48.908;9.140;2023-04-24T18:46:29;11.30;99.90
22984;DHT22;11658;48.908;9.140;2023-04-24T18:48:55;11.30;99.90
22984;DHT22;11658;48.908;9.140;2023-04-24T18:51:21;11.30;99.90